createdAt,value
2022-08-18T00:01:11.563Z,101184.91
2022-08-18T00:03:55.568Z,101179.22
2022-08-18T00:06:28.532Z,101173.31
2022-08-18T00:08:59.697Z,101174.53
2022-08-18T00:11:40.506Z,101165.59
2022-08-18T00:14:13.747Z,101161.94
2022-08-18T00:16:50.047Z,101165.31
2022-08-18T00:19:18.207Z,101156.66
2022-08-18T00:21:46.416Z,101153.50
2022-08-18T00:24:16.108Z,101146.00
2022-08-18T00:26:44.482Z,101150.78
2022-08-18T00:29:16.766Z,101153.19
2022-08-18T00:31:44.972Z,101149.84
2022-08-18T00:34:13.325Z,101155.50
2022-08-18T00:36:41.485Z,101167.25
2022-08-18T00:39:09.675Z,101170.19
2022-08-18T00:41:39.355Z,101163.75
2022-08-18T00:44:07.527Z,101167.84
2022-08-18T00:46:38.529Z,101169.34
2022-08-18T00:49:07.362Z,101163.94
2022-08-18T00:51:42.778Z,101171.22
2022-08-18T00:54:17.997Z,101158.84
2022-08-18T00:56:50.414Z,101161.22
2022-08-18T00:59:26.016Z,101159.00
2022-08-18T01:01:56.087Z,101155.41
2022-08-18T01:04:29.520Z,101154.56
2022-08-18T01:07:01.979Z,101149.53
2022-08-18T01:09:31.353Z,101151.56
2022-08-18T01:12:01.035Z,101156.00
2022-08-18T01:14:49.451Z,101153.50
2022-08-18T01:17:35.036Z,101152.00
2022-08-18T01:20:21.332Z,101143.03
2022-08-18T01:23:00.903Z,101146.91
2022-08-18T01:25:46.783Z,101149.75
2022-08-18T01:28:18.550Z,101149.75
2022-08-18T01:30:49.967Z,101162.84
2022-08-18T01:33:18.959Z,101164.22
2022-08-18T01:35:49.971Z,101169.84
2022-08-18T01:38:22.455Z,101171.03
2022-08-18T01:41:25.259Z,101162.09
2022-08-18T01:43:41.621Z,101171.94
2022-08-18T01:46:10.469Z,101172.91
2022-08-18T01:48:39.215Z,101157.31
2022-08-18T01:51:09.656Z,101168.31
2022-08-18T01:53:39.349Z,101157.28
2022-08-18T01:56:08.938Z,101157.13
2022-08-18T01:58:38.378Z,101161.91
2022-08-18T02:01:07.177Z,101158.84
2022-08-18T02:03:38.857Z,101158.88
2022-08-18T02:06:11.210Z,101151.28
2022-08-18T02:08:46.348Z,101153.34
2022-08-18T02:11:18.008Z,101150.28
2022-08-18T02:13:46.209Z,101152.00
2022-08-18T02:16:14.757Z,101150.97
2022-08-18T02:18:47.508Z,101146.56
2022-08-18T02:21:20.574Z,101153.31
2022-08-18T02:23:53.391Z,101142.13
2022-08-18T02:26:23.477Z,101140.13
2022-08-18T02:28:51.679Z,101142.19
2022-08-18T02:31:23.251Z,101149.94
2022-08-18T02:33:52.731Z,101140.63
2022-08-18T02:36:25.269Z,101139.44
2022-08-18T02:38:59.524Z,101141.47
2022-08-18T02:41:30.071Z,101137.75
2022-08-18T02:43:58.899Z,101136.41
2022-08-18T02:46:29.754Z,101137.41
2022-08-18T02:48:58.690Z,101139.47
2022-08-18T02:51:26.866Z,101136.25
2022-08-18T02:53:59.389Z,101132.88
2022-08-18T02:56:32.722Z,101126.75
2022-08-18T02:59:12.199Z,101121.16
2022-08-18T03:01:44.028Z,101123.88
2022-08-18T03:04:28.684Z,101111.00
2022-08-18T03:06:58.930Z,101109.34
2022-08-18T03:09:29.453Z,101099.53
2022-08-18T03:11:58.449Z,101101.72
2022-08-18T03:14:27.084Z,101101.38
2022-08-18T03:16:55.597Z,101098.84
2022-08-18T03:19:24.951Z,101094.78
2022-08-18T03:21:53.346Z,101098.16
2022-08-18T03:24:23.758Z,101100.22
2022-08-18T03:26:55.822Z,101097.50
2022-08-18T03:29:27.909Z,101109.34
2022-08-18T03:31:59.403Z,101105.94
2022-08-18T03:34:27.570Z,101110.53
2022-08-18T03:36:55.750Z,101103.44
2022-08-18T03:39:25.139Z,101101.22
2022-08-18T03:41:58.598Z,101097.50
2022-08-18T03:44:32.875Z,101084.31
2022-08-18T03:47:03.266Z,101085.81
2022-08-18T03:49:32.427Z,101083.97
2022-08-18T03:52:01.562Z,101087.31
2022-08-18T03:54:32.450Z,101083.63
2022-08-18T03:57:02.171Z,101088.34
2022-08-18T03:59:32.227Z,101085.31
2022-08-18T04:02:00.834Z,101090.72
2022-08-18T04:04:29.986Z,101088.03
2022-08-18T04:07:00.642Z,101086.66
2022-08-18T04:09:31.002Z,101093.78
2022-08-18T04:12:00.508Z,101097.97
2022-08-18T04:14:31.078Z,101091.06
2022-08-18T04:16:59.645Z,101092.41
2022-08-18T04:19:28.345Z,101099.34
2022-08-18T04:21:58.174Z,101091.91
2022-08-18T04:24:31.041Z,101087.28
2022-08-18T04:27:02.031Z,101104.56
2022-08-18T04:29:32.161Z,101106.06
2022-08-18T04:32:02.900Z,101096.41
2022-08-18T04:34:31.093Z,101112.34
2022-08-18T04:36:59.369Z,101108.25
2022-08-18T04:39:28.180Z,101110.13
2022-08-18T04:41:56.854Z,101116.06
2022-08-18T04:44:25.176Z,101116.06
2022-08-18T04:46:56.240Z,101118.94
2022-08-18T04:49:27.824Z,101114.03
2022-08-18T04:52:36.525Z,101101.31
2022-08-18T04:55:03.873Z,101111.44
2022-08-18T04:57:34.871Z,101109.22
2022-08-18T05:00:13.950Z,101118.34
2022-08-18T05:02:44.114Z,101126.78
2022-08-18T05:05:12.545Z,101127.28
2022-08-18T05:07:46.402Z,101123.56
2022-08-18T05:10:17.919Z,101125.75
2022-08-18T05:12:49.025Z,101126.78
2022-08-18T05:15:17.850Z,101113.22
2022-08-18T05:17:47.627Z,101108.44
2022-08-18T05:20:19.147Z,101121.66
2022-08-18T05:22:48.074Z,101115.22
2022-08-18T05:25:16.376Z,101118.09
2022-08-18T05:27:45.095Z,101117.72
2022-08-18T05:30:15.552Z,101117.56
2022-08-18T05:32:49.626Z,101116.56
2022-08-18T05:35:25.179Z,101110.78
2022-08-18T05:38:17.129Z,101115.69
2022-08-18T05:40:47.238Z,101116.53
2022-08-18T05:43:16.533Z,101110.56
2022-08-18T05:45:44.883Z,101109.69
2022-08-18T05:48:13.025Z,101116.16
2022-08-18T05:50:42.968Z,101114.06
2022-08-18T05:53:15.897Z,101122.38
2022-08-18T05:56:07.604Z,101114.78
2022-08-18T05:58:40.368Z,101128.34
2022-08-18T06:01:15.057Z,101120.69
2022-08-18T06:03:49.482Z,101120.81
2022-08-18T06:06:23.425Z,101126.72
2022-08-18T06:09:00.096Z,101126.00
2022-08-18T06:11:28.368Z,101132.28
2022-08-18T06:13:59.987Z,101123.59
2022-08-18T06:16:48.601Z,101121.69
2022-08-18T06:19:39.357Z,101127.72
2022-08-18T06:22:19.329Z,101117.44
2022-08-18T06:24:56.655Z,101121.78
2022-08-18T06:27:40.052Z,101117.59
2022-08-18T06:30:15.771Z,101122.63
2022-08-18T06:32:58.009Z,101115.22
2022-08-18T06:35:34.812Z,101117.03
2022-08-18T06:38:34.085Z,101111.22
2022-08-18T06:41:05.414Z,101113.75
2022-08-18T06:43:35.569Z,101110.38
2022-08-18T06:46:09.690Z,101103.06
2022-08-18T06:48:45.731Z,101105.53
2022-08-18T06:51:19.944Z,101099.13
2022-08-18T06:53:57.844Z,101100.94
2022-08-18T06:56:29.921Z,101096.22
2022-08-18T06:59:23.138Z,101099.88
2022-08-18T07:01:54.896Z,101101.88
2022-08-18T07:04:40.281Z,101095.88
2022-08-18T07:07:40.263Z,101090.41
2022-08-18T07:10:33.390Z,101087.69
2022-08-18T07:13:22.789Z,101100.84
2022-08-18T07:15:52.028Z,101095.09
2022-08-18T07:18:26.674Z,101101.69
2022-08-18T07:20:59.062Z,101098.22
2022-08-18T07:23:34.536Z,101092.88
2022-08-18T07:26:09.876Z,101096.78
2022-08-18T07:28:41.904Z,101100.00
2022-08-18T07:31:30.968Z,101092.00
2022-08-18T07:34:04.732Z,101104.75
2022-08-18T07:36:36.769Z,101113.34
2022-08-18T07:39:10.721Z,101117.25
2022-08-18T07:41:44.294Z,101113.56
2022-08-18T07:44:19.852Z,101111.97
2022-08-18T07:46:55.692Z,101119.56
2022-08-18T07:49:27.610Z,101120.03
2022-08-18T07:52:02.403Z,101116.19
2022-08-18T07:54:54.675Z,101123.72
2022-08-18T07:57:41.965Z,101109.88
2022-08-18T08:00:41.465Z,101108.25
2022-08-18T08:03:27.193Z,101108.66
2022-08-18T08:06:02.216Z,101099.44
2022-08-18T08:08:35.778Z,101112.97
2022-08-18T08:11:14.553Z,101109.66
2022-08-18T08:13:56.716Z,101108.41
2022-08-18T08:16:36.585Z,101102.56
2022-08-18T08:19:13.500Z,101111.13
2022-08-18T08:21:52.949Z,101113.25
2022-08-18T08:24:30.841Z,101116.81
2022-08-18T08:27:03.473Z,101117.03
2022-08-18T08:29:42.559Z,101113.78
2022-08-18T08:32:29.213Z,101110.88
2022-08-18T08:35:01.167Z,101118.00
2022-08-18T08:37:46.039Z,101113.78
2022-08-18T08:40:20.904Z,101113.97
2022-08-18T08:42:56.710Z,101111.53
2022-08-18T08:45:29.808Z,101112.53
2022-08-18T08:48:08.750Z,101109.19
2022-08-18T08:50:46.397Z,101115.94
2022-08-18T08:53:20.431Z,101113.84
2022-08-18T08:55:52.290Z,101111.78
2022-08-18T08:58:26.188Z,101112.03
2022-08-18T09:00:57.881Z,101110.66
2022-08-18T09:03:41.383Z,101122.03
2022-08-18T09:06:25.430Z,101120.56
2022-08-18T09:09:12.560Z,101120.59
2022-08-18T09:12:03.660Z,101109.78
2022-08-18T09:15:02.203Z,101121.13
2022-08-18T09:17:56.951Z,101120.97
2022-08-18T09:20:54.798Z,101118.09
2022-08-18T09:23:27.679Z,101121.75
2022-08-18T09:25:58.834Z,101122.03
2022-08-18T09:28:56.521Z,101135.13
2022-08-18T09:31:25.945Z,101110.03
2022-08-18T09:34:34.936Z,101117.06
2022-08-18T09:37:13.750Z,101121.94
2022-08-18T09:40:12.573Z,101107.22
2022-08-18T09:42:49.935Z,101115.63
2022-08-18T09:45:57.806Z,101097.63
2022-08-18T09:48:32.294Z,101108.16
2022-08-18T09:54:27.495Z,101111.63
2022-08-18T09:57:08.847Z,101117.72
2022-08-18T10:00:24.294Z,101096.16
2022-08-18T10:03:14.815Z,101105.44
2022-08-18T10:06:15.769Z,101107.59
2022-08-18T10:09:27.196Z,101110.19
2022-08-18T10:12:29.656Z,101109.34
2022-08-18T10:15:33.070Z,101105.34
2022-08-18T10:18:27.207Z,101104.31
2022-08-18T10:21:04.217Z,101118.81
2022-08-18T10:24:35.056Z,101111.91
2022-08-18T10:27:08.302Z,101098.88
2022-08-18T10:29:57.494Z,101107.66
2022-08-18T10:35:58.980Z,101098.56
2022-08-18T10:38:47.854Z,101091.63
2022-08-18T10:41:45.338Z,101085.09
2022-08-18T10:44:28.901Z,101086.09
2022-08-18T10:46:59.828Z,101077.28
2022-08-18T10:49:32.132Z,101085.25
2022-08-18T10:52:22.948Z,101075.56
2022-08-18T10:55:10.396Z,101074.31
2022-08-18T10:57:56.844Z,101073.50
2022-08-18T11:00:37.964Z,101076.00
2022-08-18T11:03:50.133Z,101072.84
2022-08-18T11:09:03.491Z,101072.69
2022-08-18T11:11:41.453Z,101070.44
2022-08-18T11:14:44.176Z,101070.88
2022-08-18T11:17:21.279Z,101055.63
2022-08-18T11:19:51.172Z,101053.53
2022-08-18T11:22:32.324Z,101049.34
2022-08-18T11:25:03.373Z,101058.84
2022-08-18T11:27:36.160Z,101055.31
2022-08-18T11:30:07.301Z,101053.81
2022-08-18T11:32:39.372Z,101055.75
2022-08-18T11:35:18.651Z,101051.53
2022-08-18T11:37:53.165Z,101050.25
2022-08-18T11:41:08.967Z,101053.63
2022-08-18T11:43:21.438Z,101046.91
2022-08-18T11:45:59.233Z,101042.88
2022-08-18T11:48:51.885Z,101046.88
2022-08-18T11:51:25.462Z,101051.50
2022-08-18T11:53:59.900Z,101043.09
2022-08-18T11:56:32.340Z,101047.69
2022-08-18T11:59:06.352Z,101033.41
2022-08-18T12:01:42.530Z,101031.28
2022-08-18T12:04:25.733Z,101026.88
2022-08-18T12:07:01.787Z,101026.66
2022-08-18T12:12:34.980Z,101031.34
2022-08-18T12:15:25.706Z,101021.69
2022-08-18T12:17:59.806Z,101027.13
2022-08-18T12:20:29.044Z,101022.94
2022-08-18T12:22:58.537Z,101022.91
2022-08-18T12:25:26.815Z,101015.75
2022-08-18T12:27:56.250Z,101016.34
2022-08-18T12:30:24.381Z,101017.63
2022-08-18T12:35:44.884Z,101012.31
2022-08-18T12:38:17.900Z,101024.53
2022-08-18T12:40:46.476Z,101015.25
2022-08-18T12:43:14.585Z,101014.38
2022-08-18T12:45:43.251Z,101010.59
2022-08-18T12:48:12.046Z,101016.28
2022-08-18T12:50:54.495Z,101005.16
2022-08-18T12:56:21.869Z,101008.53
2022-08-18T12:58:50.373Z,101002.47
2022-08-18T13:01:19.615Z,101007.25
2022-08-18T13:03:52.502Z,101010.56
2022-08-18T13:06:29.713Z,101011.34
2022-08-18T13:08:59.937Z,101013.84
2022-08-18T13:11:28.027Z,101010.91
2022-08-18T13:13:57.819Z,101011.50
2022-08-18T13:16:53.327Z,101015.50
2022-08-18T13:19:23.159Z,101007.72
2022-08-18T13:21:52.280Z,101002.09
2022-08-18T13:24:22.311Z,100994.53
2022-08-18T13:26:51.699Z,100998.09
2022-08-18T13:29:21.234Z,100988.84
2022-08-18T13:31:55.903Z,100989.94
2022-08-18T13:34:27.676Z,100985.34
2022-08-18T13:36:58.800Z,100984.09
2022-08-18T13:39:34.087Z,100971.06
2022-08-18T13:42:26.730Z,100966.22
2022-08-18T13:44:53.276Z,100966.41
2022-08-18T13:47:22.308Z,100975.09
2022-08-18T13:49:57.976Z,100967.28
2022-08-18T13:52:34.431Z,100953.88
2022-08-18T13:55:11.706Z,100961.84
2022-08-18T13:57:42.169Z,100962.44
2022-08-18T14:00:18.423Z,100973.16
2022-08-18T14:02:58.956Z,100954.66
2022-08-18T14:05:50.927Z,100952.97
2022-08-18T14:08:19.048Z,100963.00
2022-08-18T14:10:54.666Z,100946.00
2022-08-18T14:13:25.196Z,100950.41
2022-08-18T14:15:56.669Z,100958.38
2022-08-18T14:18:28.603Z,100944.56
2022-08-18T14:21:16.511Z,100947.91
2022-08-18T14:24:01.408Z,100948.75
2022-08-18T14:26:49.942Z,100948.53
2022-08-18T14:29:45.665Z,100957.56
2022-08-18T14:32:08.709Z,100947.69
2022-08-18T14:34:42.381Z,100939.91
2022-08-18T14:37:19.318Z,100947.06
2022-08-18T14:39:50.342Z,100941.78
2022-08-18T14:42:41.148Z,100939.91
2022-08-18T14:45:17.934Z,100929.00
2022-08-18T14:47:56.812Z,100946.47
2022-08-18T14:50:26.835Z,100947.94
2022-08-18T14:52:55.378Z,100934.28
2022-08-18T14:55:23.928Z,100941.19
2022-08-18T14:57:54.203Z,100940.56
2022-08-18T15:00:22.934Z,100942.84
2022-08-18T15:02:52.537Z,100942.78
2022-08-18T15:05:24.499Z,100936.94
2022-08-18T15:07:53.962Z,100930.25
2022-08-18T15:10:23.455Z,100935.28
2022-08-18T15:12:58.678Z,100934.44
2022-08-18T15:15:50.840Z,100932.97
2022-08-18T15:18:22.832Z,100929.81
2022-08-18T15:21:10.248Z,100932.31
2022-08-18T15:24:04.882Z,100934.66
2022-08-18T15:26:51.895Z,100920.34
2022-08-18T15:29:29.398Z,100920.19
2022-08-18T15:32:02.281Z,100919.34
2022-08-18T15:34:33.392Z,100921.69
2022-08-18T15:37:16.074Z,100934.94
2022-08-18T15:39:51.694Z,100924.63
2022-08-18T15:42:24.377Z,100916.66
2022-08-18T15:44:54.482Z,100920.22
2022-08-18T15:47:25.150Z,100929.47
2022-08-18T15:49:54.773Z,100924.06
2022-08-18T15:52:24.595Z,100921.72
2022-08-18T15:54:57.012Z,100927.00
2022-08-18T15:57:38.463Z,100927.63
2022-08-18T16:00:12.235Z,100927.81
2022-08-18T16:02:48.337Z,100929.47
2022-08-18T16:05:18.234Z,100924.84
2022-08-18T16:07:47.654Z,100919.41
2022-08-18T16:10:17.762Z,100927.59
2022-08-18T16:12:46.448Z,100923.19
2022-08-18T16:15:19.412Z,100915.25
2022-08-18T16:17:51.148Z,100924.06
2022-08-18T16:20:21.130Z,100916.94
2022-08-18T16:22:49.343Z,100930.97
2022-08-18T16:25:17.991Z,100929.75
2022-08-18T16:27:47.942Z,100928.94
2022-08-18T16:30:19.767Z,100927.91
2022-08-18T16:32:48.580Z,100939.22
2022-08-18T16:35:17.259Z,100939.63
2022-08-18T16:37:46.814Z,100938.38
2022-08-18T16:40:15.522Z,100929.94
2022-08-18T16:42:43.750Z,100929.75
2022-08-18T16:45:15.558Z,100928.25
2022-08-18T16:47:45.251Z,100927.41
2022-08-18T16:50:15.442Z,100925.94
2022-08-18T16:52:43.686Z,100926.78
2022-08-18T16:55:14.004Z,100938.09
2022-08-18T16:58:01.871Z,100932.81
2022-08-18T17:00:54.799Z,100933.22
2022-08-18T17:03:45.131Z,100938.66
2022-08-18T17:06:15.649Z,100930.25
2022-08-18T17:08:46.247Z,100931.25
2022-08-18T17:11:17.159Z,100930.66
2022-08-18T17:13:47.179Z,100944.88
2022-08-18T17:16:16.265Z,100940.66
2022-08-18T17:18:46.575Z,100941.69
2022-08-18T17:21:18.550Z,100945.72
2022-08-18T17:23:47.252Z,100941.91
2022-08-18T17:26:34.130Z,100950.94
2022-08-18T17:29:07.223Z,100933.06
2022-08-18T17:31:36.904Z,100941.91
2022-08-18T17:34:10.122Z,100945.84
2022-08-18T17:36:53.193Z,100935.53
2022-08-18T17:39:36.377Z,100931.28
2022-08-18T17:42:22.802Z,100940.91
2022-08-18T17:44:52.591Z,100933.97
2022-08-18T17:47:26.788Z,100920.72
2022-08-18T17:50:27.907Z,100927.84
2022-08-18T17:53:05.455Z,100928.44
2022-08-18T17:55:40.527Z,100934.09
2022-08-18T17:58:16.087Z,100935.53
2022-08-18T18:00:45.318Z,100936.50
2022-08-18T18:03:13.724Z,100937.78
2022-08-18T18:05:48.721Z,100937.75
2022-08-18T18:08:17.641Z,100944.66
2022-08-18T18:11:05.433Z,100933.09
2022-08-18T18:13:35.198Z,100930.19
2022-08-18T18:16:21.731Z,100935.38
2022-08-18T18:19:01.181Z,100939.78
2022-08-18T18:21:57.651Z,100935.19
2022-08-18T18:24:31.471Z,100938.50
2022-08-18T18:27:00.117Z,100936.72
2022-08-18T18:29:35.685Z,100940.50
2022-08-18T18:32:08.788Z,100926.16
2022-08-18T18:34:40.858Z,100931.28
2022-08-18T18:37:27.433Z,100937.31
2022-08-18T18:39:57.671Z,100929.41
2022-08-18T18:42:29.704Z,100935.03
2022-08-18T18:44:59.792Z,100936.09
2022-08-18T18:50:55.592Z,100943.16
2022-08-18T18:53:49.975Z,100940.66
2022-08-18T18:56:27.222Z,100939.53
2022-08-18T18:59:05.407Z,100928.84
2022-08-18T19:01:43.502Z,100942.91
2022-08-18T19:04:18.659Z,100931.78
2022-08-18T19:06:55.480Z,100933.66
2022-08-18T19:09:32.751Z,100941.13
2022-08-18T19:12:12.377Z,100929.56
2022-08-18T19:14:57.640Z,100946.31
2022-08-18T19:17:35.421Z,100939.34
2022-08-18T19:20:08.268Z,100942.22
2022-08-18T19:22:43.420Z,100953.75
2022-08-18T19:25:19.491Z,100945.53
2022-08-18T19:27:52.716Z,100944.84
2022-08-18T19:30:23.027Z,100942.34
2022-08-18T19:32:53.738Z,100939.00
2022-08-18T19:35:35.162Z,100943.56
2022-08-18T19:38:15.449Z,100945.91
2022-08-18T19:40:50.765Z,100937.53
2022-08-18T19:43:26.772Z,100946.28
2022-08-18T19:46:03.494Z,100952.59
2022-08-18T19:48:39.558Z,100948.63
2022-08-18T19:51:14.769Z,100942.94
2022-08-18T19:54:05.650Z,100948.09
2022-08-18T19:56:50.230Z,100941.00
2022-08-18T19:59:42.692Z,100945.38
2022-08-18T20:02:28.965Z,100940.31
2022-08-18T20:05:11.503Z,100940.31
2022-08-18T20:08:06.926Z,100939.69
2022-08-18T20:10:59.279Z,100937.78
2022-08-18T20:13:36.692Z,100940.31
2022-08-18T20:16:34.592Z,100940.69
2022-08-18T20:19:41.207Z,100948.19
2022-08-18T20:22:16.304Z,100947.84
2022-08-18T20:24:53.384Z,100944.56
2022-08-18T20:27:34.972Z,100953.09
2022-08-18T20:30:26.734Z,100932.63
2022-08-18T20:33:20.908Z,100939.50
2022-08-18T20:35:59.260Z,100946.44
2022-08-18T20:38:35.323Z,100944.75
2022-08-18T20:41:42.452Z,100948.69
2022-08-18T20:44:45.361Z,100945.13
2022-08-18T20:47:43.441Z,100945.34
2022-08-18T20:50:39.425Z,100935.09
2022-08-18T20:53:22.474Z,100936.78
2022-08-18T20:55:58.988Z,100938.84
2022-08-18T20:58:33.810Z,100938.19
2022-08-18T21:01:02.610Z,100939.69
2022-08-18T21:03:41.522Z,100939.50
2022-08-18T21:06:11.196Z,100941.31
2022-08-18T21:08:46.030Z,100944.66
2022-08-18T21:11:29.801Z,100940.63
2022-08-18T21:14:04.075Z,100945.06
2022-08-18T21:16:38.926Z,100942.06
2022-08-18T21:19:14.129Z,100945.19
2022-08-18T21:21:50.119Z,100956.31
2022-08-18T21:24:28.830Z,100945.81
2022-08-18T21:27:05.279Z,100951.34
2022-08-18T21:29:47.122Z,100950.88
2022-08-18T21:32:20.921Z,100947.31
2022-08-18T21:34:56.272Z,100951.25
2022-08-18T21:37:24.936Z,100945.19
2022-08-18T21:39:57.857Z,100944.13
2022-08-18T21:42:31.654Z,100947.41
2022-08-18T21:45:04.383Z,100953.69
2022-08-18T21:47:35.132Z,100955.78
2022-08-18T21:50:11.042Z,100943.59
2022-08-18T21:53:02.375Z,100946.88
2022-08-18T21:55:34.119Z,100957.28
2022-08-18T21:58:09.244Z,100950.16
2022-08-18T22:00:39.535Z,100962.06
2022-08-18T22:03:26.914Z,100950.63
2022-08-18T22:06:02.822Z,100953.84
2022-08-18T22:08:35.057Z,100951.09
2022-08-18T22:11:57.234Z,100950.91
2022-08-18T22:14:53.568Z,100941.66
2022-08-18T22:17:33.553Z,100955.25
2022-08-18T22:20:47.736Z,100950.63
2022-08-18T22:23:54.988Z,100946.59
2022-08-18T22:26:27.622Z,100948.50
2022-08-18T22:29:02.454Z,100945.41
2022-08-18T22:31:33.213Z,100934.69
2022-08-18T22:34:04.987Z,100940.97
2022-08-18T22:36:37.453Z,100942.84
2022-08-18T22:39:12.489Z,100948.13
2022-08-18T22:41:41.958Z,100955.59
2022-08-18T22:44:10.588Z,100956.91
2022-08-18T22:46:38.853Z,100968.56
2022-08-18T22:49:07.073Z,100967.88
2022-08-18T22:51:37.418Z,100961.69
2022-08-18T22:54:08.477Z,100963.41
2022-08-18T22:56:38.619Z,100976.03
2022-08-18T22:59:15.819Z,100953.09
2022-08-18T23:01:50.223Z,100959.44
2022-08-18T23:04:20.180Z,100964.31
2022-08-18T23:06:52.112Z,100968.16
2022-08-18T23:09:22.989Z,100969.47
2022-08-18T23:11:54.325Z,100960.75
2022-08-18T23:14:22.526Z,100958.13
2022-08-18T23:16:51.032Z,100949.31
2022-08-18T23:19:21.344Z,100953.09
2022-08-18T23:21:50.033Z,100947.66
2022-08-18T23:24:19.829Z,100960.00
2022-08-18T23:26:49.410Z,100960.28
2022-08-18T23:29:19.961Z,100954.41
2022-08-18T23:31:49.714Z,100948.56
2022-08-18T23:34:19.737Z,100951.09
2022-08-18T23:36:55.570Z,100960.09
2022-08-18T23:39:24.585Z,100958.31
2022-08-18T23:41:53.238Z,100961.41
2022-08-18T23:44:23.808Z,100968.16
2022-08-18T23:46:58.132Z,100966.28
2022-08-18T23:49:26.902Z,100969.19
2022-08-18T23:51:56.318Z,100967.53
2022-08-18T23:54:29.457Z,100973.50
2022-08-18T23:56:58.381Z,100979.44
2022-08-18T23:59:29.395Z,100972.88
